sensor_id;sensor_type;location;lat;lon;timestamp;temperature;humidity
18225;DHT22;9237;48.590;8.854;2023-02-26T00:02:28;-0.20;99.90
18225;DHT22;9237;48.590;8.854;2023-02-26T00:04:55;-0.20;99.90
18225;DHT22;9237;48.590;8.854;2023-02-26T00:07:21;-0.20;99.90
18225;DHT22;9237;48.590;8.854;2023-02-26T00:09:49;-0.30;99.90
18225;DHT22;9237;48.590;8.854;2023-02-26T00:12:17;-0.20;99.90
18225;DHT22;9237;48.590;8.854;2023-02-26T00:14:44;-0.30;99.90
18225;DHT22;9237;48.590;8.854;2023-02-26T00:17:28;-0.30;99.90
18225;DHT22;9237;48.590;8.854;2023-02-26T00:19:58;-0.30;99.90
18225;DHT22;9237;48.590;8.854;2023-02-26T00:22:25;-0.40;99.90
18225;DHT22;9237;48.590;8.854;2023-02-26T00:24:54;-0.40;99.90
18225;DHT22;9237;48.590;8.854;2023-02-26T00:27:21;-0.40;99.90
18225;DHT22;9237;48.590;8.854;2023-02-26T00:29:48;-0.50;99.90
18225;DHT22;9237;48.590;8.854;2023-02-26T00:32:16;-0.50;99.90
18225;DHT22;9237;48.590;8.854;2023-02-26T00:34:44;-0.60;99.90
18225;DHT22;9237;48.590;8.854;2023-02-26T00:37:22;-0.60;99.90
18225;DHT22;9237;48.590;8.854;2023-02-26T00:40:02;-0.70;99.90
18225;DHT22;9237;48.590;8.854;2023-02-26T00:42:33;-0.80;99.90
18225;DHT22;9237;48.590;8.854;2023-02-26T00:45:01;-0.80;99.90
18225;DHT22;9237;48.590;8.854;2023-02-26T00:47:34;-0.80;99.90
18225;DHT22;9237;48.590;8.854;2023-02-26T00:50:13;-0.80;99.90
18225;DHT22;9237;48.590;8.854;2023-02-26T00:52:48;-0.90;99.90
18225;DHT22;9237;48.590;8.854;2023-02-26T00:55:20;-0.90;99.90
18225;DHT22;9237;48.590;8.854;2023-02-26T00:57:46;-1.00;99.90
18225;DHT22;9237;48.590;8.854;2023-02-26T01:00:14;-1.00;99.90
18225;DHT22;9237;48.590;8.854;2023-02-26T01:02:42;-1.00;99.90
18225;DHT22;9237;48.590;8.854;2023-02-26T01:05:10;-1.10;99.90
18225;DHT22;9237;48.590;8.854;2023-02-26T01:07:40;-1.10;99.90
18225;DHT22;9237;48.590;8.854;2023-02-26T01:10:09;-1.10;99.90
18225;DHT22;9237;48.590;8.854;2023-02-26T01:12:38;-1.20;99.90
18225;DHT22;9237;48.590;8.854;2023-02-26T01:15:06;-1.20;99.90
18225;DHT22;9237;48.590;8.854;2023-02-26T01:17:36;-1.20;99.90
18225;DHT22;9237;48.590;8.854;2023-02-26T01:20:08;-1.20;99.90
18225;DHT22;9237;48.590;8.854;2023-02-26T01:22:40;-1.30;99.90
18225;DHT22;9237;48.590;8.854;2023-02-26T01:25:10;-1.30;99.90
18225;DHT22;9237;48.590;8.854;2023-02-26T01:27:39;-1.30;99.90
18225;DHT22;9237;48.590;8.854;2023-02-26T01:30:08;-1.20;99.90
18225;DHT22;9237;48.590;8.854;2023-02-26T01:32:42;-1.20;99.90
18225;DHT22;9237;48.590;8.854;2023-02-26T01:35:19;-1.20;99.90
18225;DHT22;9237;48.590;8.854;2023-02-26T01:37:54;-1.20;99.90
18225;DHT22;9237;48.590;8.854;2023-02-26T01:40:51;-1.20;99.90
18225;DHT22;9237;48.590;8.854;2023-02-26T01:43:27;-1.20;99.90
18225;DHT22;9237;48.590;8.854;2023-02-26T01:46:03;-1.20;99.90
18225;DHT22;9237;48.590;8.854;2023-02-26T01:48:36;-1.20;99.90
18225;DHT22;9237;48.590;8.854;2023-02-26T01:51:04;-1.20;99.90
18225;DHT22;9237;48.590;8.854;2023-02-26T01:53:30;-1.20;99.90
18225;DHT22;9237;48.590;8.854;2023-02-26T01:55:59;-1.30;99.90
18225;DHT22;9237;48.590;8.854;2023-02-26T01:58:31;-1.30;99.90
18225;DHT22;9237;48.590;8.854;2023-02-26T02:00:58;-1.30;99.90
18225;DHT22;9237;48.590;8.854;2023-02-26T02:03:26;-1.30;99.90
18225;DHT22;9237;48.590;8.854;2023-02-26T02:05:56;-1.30;99.90
18225;DHT22;9237;48.590;8.854;2023-02-26T02:08:24;-1.40;99.90
18225;DHT22;9237;48.590;8.854;2023-02-26T02:10:51;-1.40;99.90
18225;DHT22;9237;48.590;8.854;2023-02-26T02:13:27;-1.40;99.90
18225;DHT22;9237;48.590;8.854;2023-02-26T02:16:08;-1.40;99.90
18225;DHT22;9237;48.590;8.854;2023-02-26T02:18:42;-1.40;99.90
18225;DHT22;9237;48.590;8.854;2023-02-26T02:21:28;-1.40;99.90
18225;DHT22;9237;48.590;8.854;2023-02-26T02:24:05;-1.40;99.90
18225;DHT22;9237;48.590;8.854;2023-02-26T02:32:35;-1.50;99.90
18225;DHT22;9237;48.590;8.854;2023-02-26T02:35:10;-1.50;99.90
18225;DHT22;9237;48.590;8.854;2023-02-26T02:37:41;-1.50;99.90
18225;DHT22;9237;48.590;8.854;2023-02-26T02:40:13;-1.50;99.90
18225;DHT22;9237;48.590;8.854;2023-02-26T02:42:44;-1.30;99.90
18225;DHT22;9237;48.590;8.854;2023-02-26T02:45:17;-1.50;99.90
18225;DHT22;9237;48.590;8.854;2023-02-26T02:47:49;-1.50;99.90
18225;DHT22;9237;48.590;8.854;2023-02-26T02:50:21;-1.50;99.90
18225;DHT22;9237;48.590;8.854;2023-02-26T02:52:53;-1.40;99.90
18225;DHT22;9237;48.590;8.854;2023-02-26T02:55:25;-1.40;99.90
18225;DHT22;9237;48.590;8.854;2023-02-26T02:57:57;-1.50;99.90
18225;DHT22;9237;48.590;8.854;2023-02-26T03:00:26;-1.50;99.90
18225;DHT22;9237;48.590;8.854;2023-02-26T03:02:59;-1.60;99.90
18225;DHT22;9237;48.590;8.854;2023-02-26T03:05:27;-1.70;99.90
18225;DHT22;9237;48.590;8.854;2023-02-26T03:07:56;-1.80;99.90
18225;DHT22;9237;48.590;8.854;2023-02-26T03:10:24;-1.80;99.90
18225;DHT22;9237;48.590;8.854;2023-02-26T03:12:51;-1.80;99.90
18225;DHT22;9237;48.590;8.854;2023-02-26T03:15:23;-1.90;99.90
18225;DHT22;9237;48.590;8.854;2023-02-26T03:18:01;-1.90;99.90
18225;DHT22;9237;48.590;8.854;2023-02-26T03:20:34;-1.90;99.90
18225;DHT22;9237;48.590;8.854;2023-02-26T03:23:08;-1.90;99.90
18225;DHT22;9237;48.590;8.854;2023-02-26T03:25:44;-1.90;99.90
18225;DHT22;9237;48.590;8.854;2023-02-26T03:28:18;-2.00;99.90
18225;DHT22;9237;48.590;8.854;2023-02-26T03:30:49;-2.00;99.90
18225;DHT22;9237;48.590;8.854;2023-02-26T03:33:23;-2.00;99.90
18225;DHT22;9237;48.590;8.854;2023-02-26T03:35:53;-2.10;99.90
18225;DHT22;9237;48.590;8.854;2023-02-26T03:38:30;-2.20;99.90
18225;DHT22;9237;48.590;8.854;2023-02-26T03:41:03;-2.20;99.90
18225;DHT22;9237;48.590;8.854;2023-02-26T03:43:35;-2.20;99.90
18225;DHT22;9237;48.590;8.854;2023-02-26T03:46:05;-2.30;99.90
18225;DHT22;9237;48.590;8.854;2023-02-26T03:48:35;-2.30;99.90
18225;DHT22;9237;48.590;8.854;2023-02-26T03:51:06;-2.50;99.90
18225;DHT22;9237;48.590;8.854;2023-02-26T03:53:38;-2.50;99.90
18225;DHT22;9237;48.590;8.854;2023-02-26T03:56:09;-2.50;99.90
18225;DHT22;9237;48.590;8.854;2023-02-26T03:58:37;-2.60;99.90
18225;DHT22;9237;48.590;8.854;2023-02-26T04:01:07;-2.70;99.90
18225;DHT22;9237;48.590;8.854;2023-02-26T04:03:41;-2.80;99.90
18225;DHT22;9237;48.590;8.854;2023-02-26T04:06:09;-2.90;99.90
18225;DHT22;9237;48.590;8.854;2023-02-26T04:08:37;-3.00;99.90
18225;DHT22;9237;48.590;8.854;2023-02-26T04:11:07;-3.10;99.90
18225;DHT22;9237;48.590;8.854;2023-02-26T04:13:35;-3.10;99.90
18225;DHT22;9237;48.590;8.854;2023-02-26T04:16:02;-3.20;99.90
18225;DHT22;9237;48.590;8.854;2023-02-26T04:18:29;-3.10;99.90
18225;DHT22;9237;48.590;8.854;2023-02-26T04:20:57;-3.10;99.90
18225;DHT22;9237;48.590;8.854;2023-02-26T04:23:24;-3.20;99.90
18225;DHT22;9237;48.590;8.854;2023-02-26T04:25:51;-3.10;99.90
18225;DHT22;9237;48.590;8.854;2023-02-26T04:28:18;-3.10;99.90
18225;DHT22;9237;48.590;8.854;2023-02-26T04:30:44;-3.10;99.90
18225;DHT22;9237;48.590;8.854;2023-02-26T04:33:12;-3.10;99.90
18225;DHT22;9237;48.590;8.854;2023-02-26T04:35:39;-3.20;99.90
18225;DHT22;9237;48.590;8.854;2023-02-26T04:38:07;-3.20;99.90
18225;DHT22;9237;48.590;8.854;2023-02-26T04:40:33;-3.20;99.90
18225;DHT22;9237;48.590;8.854;2023-02-26T04:43:00;-3.20;99.90
18225;DHT22;9237;48.590;8.854;2023-02-26T04:45:27;-3.10;99.90
18225;DHT22;9237;48.590;8.854;2023-02-26T04:47:54;-3.20;99.90
18225;DHT22;9237;48.590;8.854;2023-02-26T04:50:21;-3.20;99.90
18225;DHT22;9237;48.590;8.854;2023-02-26T04:52:47;-3.10;99.90
18225;DHT22;9237;48.590;8.854;2023-02-26T04:55:16;-3.10;99.90
18225;DHT22;9237;48.590;8.854;2023-02-26T04:57:42;-3.20;99.90
18225;DHT22;9237;48.590;8.854;2023-02-26T05:00:10;-3.10;99.90
18225;DHT22;9237;48.590;8.854;2023-02-26T05:02:37;-3.10;99.90
18225;DHT22;9237;48.590;8.854;2023-02-26T05:05:04;-3.10;99.90
18225;DHT22;9237;48.590;8.854;2023-02-26T05:07:31;-3.10;99.90
18225;DHT22;9237;48.590;8.854;2023-02-26T05:09:58;-3.10;99.90
18225;DHT22;9237;48.590;8.854;2023-02-26T05:12:26;-3.10;99.90
18225;DHT22;9237;48.590;8.854;2023-02-26T05:14:53;-3.20;99.90
18225;DHT22;9237;48.590;8.854;2023-02-26T05:17:20;-3.10;99.90
18225;DHT22;9237;48.590;8.854;2023-02-26T05:19:46;-3.10;99.90
18225;DHT22;9237;48.590;8.854;2023-02-26T05:22:13;-3.20;99.90
18225;DHT22;9237;48.590;8.854;2023-02-26T05:24:40;-3.20;99.90
18225;DHT22;9237;48.590;8.854;2023-02-26T05:27:08;-3.30;99.90
18225;DHT22;9237;48.590;8.854;2023-02-26T05:29:36;-3.40;99.90
18225;DHT22;9237;48.590;8.854;2023-02-26T05:32:05;-3.40;99.90
18225;DHT22;9237;48.590;8.854;2023-02-26T05:34:32;-3.30;99.90
18225;DHT22;9237;48.590;8.854;2023-02-26T05:36:59;-3.10;99.90
18225;DHT22;9237;48.590;8.854;2023-02-26T05:39:25;-3.10;99.90
18225;DHT22;9237;48.590;8.854;2023-02-26T05:41:52;-3.00;99.90
18225;DHT22;9237;48.590;8.854;2023-02-26T05:44:19;-3.00;99.90
18225;DHT22;9237;48.590;8.854;2023-02-26T05:46:48;-3.00;99.90
18225;DHT22;9237;48.590;8.854;2023-02-26T05:49:14;-3.00;99.90
18225;DHT22;9237;48.590;8.854;2023-02-26T05:51:41;-3.00;99.90
18225;DHT22;9237;48.590;8.854;2023-02-26T05:54:08;-3.10;99.90
18225;DHT22;9237;48.590;8.854;2023-02-26T05:56:36;-3.20;99.90
18225;DHT22;9237;48.590;8.854;2023-02-26T05:59:03;-3.20;99.90
18225;DHT22;9237;48.590;8.854;2023-02-26T06:01:29;-3.20;99.90
18225;DHT22;9237;48.590;8.854;2023-02-26T06:03:57;-3.30;99.90
18225;DHT22;9237;48.590;8.854;2023-02-26T06:06:24;-3.30;99.90
18225;DHT22;9237;48.590;8.854;2023-02-26T06:08:51;-3.30;99.90
18225;DHT22;9237;48.590;8.854;2023-02-26T06:11:18;-3.30;99.90
18225;DHT22;9237;48.590;8.854;2023-02-26T06:13:45;-3.30;99.90
18225;DHT22;9237;48.590;8.854;2023-02-26T06:16:12;-3.30;99.90
18225;DHT22;9237;48.590;8.854;2023-02-26T06:18:39;-3.30;99.90
18225;DHT22;9237;48.590;8.854;2023-02-26T06:21:07;-3.40;99.90
18225;DHT22;9237;48.590;8.854;2023-02-26T06:23:34;-3.50;99.90
18225;DHT22;9237;48.590;8.854;2023-02-26T06:26:01;-3.40;99.90
18225;DHT22;9237;48.590;8.854;2023-02-26T06:28:27;-3.30;99.90
18225;DHT22;9237;48.590;8.854;2023-02-26T06:30:54;-3.30;99.90
18225;DHT22;9237;48.590;8.854;2023-02-26T06:33:21;-3.30;99.90
18225;DHT22;9237;48.590;8.854;2023-02-26T06:35:49;-3.30;99.90
18225;DHT22;9237;48.590;8.854;2023-02-26T06:38:18;-3.30;99.90
18225;DHT22;9237;48.590;8.854;2023-02-26T06:40:46;-3.30;99.90
18225;DHT22;9237;48.590;8.854;2023-02-26T06:43:12;-3.30;99.90
18225;DHT22;9237;48.590;8.854;2023-02-26T06:45:39;-3.30;99.90
18225;DHT22;9237;48.590;8.854;2023-02-26T06:48:06;-3.30;99.90
18225;DHT22;9237;48.590;8.854;2023-02-26T06:50:33;-3.30;99.90
18225;DHT22;9237;48.590;8.854;2023-02-26T06:52:59;-3.20;99.90
18225;DHT22;9237;48.590;8.854;2023-02-26T06:55:27;-3.10;99.90
18225;DHT22;9237;48.590;8.854;2023-02-26T06:57:55;-3.20;99.90
18225;DHT22;9237;48.590;8.854;2023-02-26T07:00:23;-3.10;99.90
18225;DHT22;9237;48.590;8.854;2023-02-26T07:02:50;-2.80;99.90
18225;DHT22;9237;48.590;8.854;2023-02-26T07:05:17;-2.70;99.90
18225;DHT22;9237;48.590;8.854;2023-02-26T07:07:44;-2.60;99.90
18225;DHT22;9237;48.590;8.854;2023-02-26T07:10:12;-2.50;99.90
18225;DHT22;9237;48.590;8.854;2023-02-26T07:12:40;-2.30;99.90
18225;DHT22;9237;48.590;8.854;2023-02-26T07:15:07;-2.00;99.90
18225;DHT22;9237;48.590;8.854;2023-02-26T07:17:34;-1.70;99.90
18225;DHT22;9237;48.590;8.854;2023-02-26T07:20:01;-1.60;99.90
18225;DHT22;9237;48.590;8.854;2023-02-26T07:22:34;-1.40;99.90
18225;DHT22;9237;48.590;8.854;2023-02-26T07:25:01;-1.30;99.90
18225;DHT22;9237;48.590;8.854;2023-02-26T07:27:28;-1.30;99.90
18225;DHT22;9237;48.590;8.854;2023-02-26T07:29:58;-1.40;99.90
18225;DHT22;9237;48.590;8.854;2023-02-26T07:32:24;-1.30;99.90
18225;DHT22;9237;48.590;8.854;2023-02-26T07:34:51;-1.30;99.90
18225;DHT22;9237;48.590;8.854;2023-02-26T07:37:18;-0.90;99.90
18225;DHT22;9237;48.590;8.854;2023-02-26T07:39:45;-0.50;99.90
18225;DHT22;9237;48.590;8.854;2023-02-26T07:42:12;0.00;99.90
18225;DHT22;9237;48.590;8.854;2023-02-26T07:44:38;0.40;99.90
18225;DHT22;9237;48.590;8.854;2023-02-26T07:47:07;0.20;99.90
18225;DHT22;9237;48.590;8.854;2023-02-26T07:49:34;0.00;99.90
18225;DHT22;9237;48.590;8.854;2023-02-26T07:52:01;-0.50;99.90
18225;DHT22;9237;48.590;8.854;2023-02-26T07:54:28;-0.10;99.90
18225;DHT22;9237;48.590;8.854;2023-02-26T07:56:54;0.30;99.90
18225;DHT22;9237;48.590;8.854;2023-02-26T07:59:21;0.40;99.90
18225;DHT22;9237;48.590;8.854;2023-02-26T08:01:48;0.50;99.90
18225;DHT22;9237;48.590;8.854;2023-02-26T08:04:16;0.30;99.90
18225;DHT22;9237;48.590;8.854;2023-02-26T08:06:43;0.50;99.90
18225;DHT22;9237;48.590;8.854;2023-02-26T08:09:10;1.10;99.90
18225;DHT22;9237;48.590;8.854;2023-02-26T08:11:37;1.00;99.90
18225;DHT22;9237;48.590;8.854;2023-02-26T08:14:05;0.90;99.90
18225;DHT22;9237;48.590;8.854;2023-02-26T08:16:32;0.40;99.90
18225;DHT22;9237;48.590;8.854;2023-02-26T08:18:59;0.20;99.90
18225;DHT22;9237;48.590;8.854;2023-02-26T08:21:27;-0.60;99.90
18225;DHT22;9237;48.590;8.854;2023-02-26T08:23:54;-0.50;99.90
18225;DHT22;9237;48.590;8.854;2023-02-26T08:26:20;-0.70;99.90
18225;DHT22;9237;48.590;8.854;2023-02-26T08:28:47;-0.50;99.90
18225;DHT22;9237;48.590;8.854;2023-02-26T08:31:14;-0.80;99.90
18225;DHT22;9237;48.590;8.854;2023-02-26T08:33:42;-0.70;99.90
18225;DHT22;9237;48.590;8.854;2023-02-26T08:36:09;-0.50;99.90
18225;DHT22;9237;48.590;8.854;2023-02-26T08:38:37;-0.70;99.90
18225;DHT22;9237;48.590;8.854;2023-02-26T08:41:04;-0.70;99.90
18225;DHT22;9237;48.590;8.854;2023-02-26T08:43:31;-0.50;99.90
18225;DHT22;9237;48.590;8.854;2023-02-26T08:45:57;-0.30;99.90
18225;DHT22;9237;48.590;8.854;2023-02-26T08:48:25;-0.30;99.90
18225;DHT22;9237;48.590;8.854;2023-02-26T08:50:51;-0.50;99.90
18225;DHT22;9237;48.590;8.854;2023-02-26T08:53:18;-0.70;99.90
18225;DHT22;9237;48.590;8.854;2023-02-26T08:55:48;-0.50;99.90
18225;DHT22;9237;48.590;8.854;2023-02-26T08:58:15;-0.80;99.90
18225;DHT22;9237;48.590;8.854;2023-02-26T09:00:41;-1.00;99.90
18225;DHT22;9237;48.590;8.854;2023-02-26T09:03:09;-1.10;99.90
18225;DHT22;9237;48.590;8.854;2023-02-26T09:05:37;-1.00;99.90
18225;DHT22;9237;48.590;8.854;2023-02-26T09:08:05;-0.70;99.90
18225;DHT22;9237;48.590;8.854;2023-02-26T09:10:32;-0.20;99.90
18225;DHT22;9237;48.590;8.854;2023-02-26T09:13:00;-0.20;99.90
18225;DHT22;9237;48.590;8.854;2023-02-26T09:15:27;-0.60;99.90
18225;DHT22;9237;48.590;8.854;2023-02-26T09:17:54;-0.50;99.90
18225;DHT22;9237;48.590;8.854;2023-02-26T09:20:21;-0.50;99.90
18225;DHT22;9237;48.590;8.854;2023-02-26T09:22:48;-0.80;99.90
18225;DHT22;9237;48.590;8.854;2023-02-26T09:25:15;-0.80;99.90
18225;DHT22;9237;48.590;8.854;2023-02-26T09:27:42;-0.80;99.90
18225;DHT22;9237;48.590;8.854;2023-02-26T09:30:11;-0.90;99.90
18225;DHT22;9237;48.590;8.854;2023-02-26T09:32:38;-1.00;99.90
18225;DHT22;9237;48.590;8.854;2023-02-26T09:35:05;-1.00;99.90
18225;DHT22;9237;48.590;8.854;2023-02-26T09:37:32;-1.10;99.90
18225;DHT22;9237;48.590;8.854;2023-02-26T09:39:59;-1.00;99.90
18225;DHT22;9237;48.590;8.854;2023-02-26T09:43:01;-1.10;99.90
18225;DHT22;9237;48.590;8.854;2023-02-26T09:45:33;-0.90;99.90
18225;DHT22;9237;48.590;8.854;2023-02-26T09:48:04;-0.80;99.90
18225;DHT22;9237;48.590;8.854;2023-02-26T09:50:38;-0.80;99.90
18225;DHT22;9237;48.590;8.854;2023-02-26T09:53:11;-0.90;99.90
18225;DHT22;9237;48.590;8.854;2023-02-26T09:55:42;-0.90;99.90
18225;DHT22;9237;48.590;8.854;2023-02-26T09:58:18;-0.90;99.90
18225;DHT22;9237;48.590;8.854;2023-02-26T10:00:53;-0.90;99.90
18225;DHT22;9237;48.590;8.854;2023-02-26T10:03:26;-1.00;99.90
18225;DHT22;9237;48.590;8.854;2023-02-26T10:06:11;-0.80;99.90
18225;DHT22;9237;48.590;8.854;2023-02-26T10:08:46;-0.50;99.90
18225;DHT22;9237;48.590;8.854;2023-02-26T10:11:20;-0.40;99.90
18225;DHT22;9237;48.590;8.854;2023-02-26T10:13:51;-0.30;99.90
18225;DHT22;9237;48.590;8.854;2023-02-26T10:16:22;-0.60;99.90
18225;DHT22;9237;48.590;8.854;2023-02-26T10:18:52;-0.80;99.90
18225;DHT22;9237;48.590;8.854;2023-02-26T10:21:24;-0.60;99.90
18225;DHT22;9237;48.590;8.854;2023-02-26T10:23:55;-0.70;99.90
18225;DHT22;9237;48.590;8.854;2023-02-26T10:26:24;-0.70;99.90
18225;DHT22;9237;48.590;8.854;2023-02-26T10:29:01;-0.70;99.90
18225;DHT22;9237;48.590;8.854;2023-02-26T10:31:34;-0.80;99.90
18225;DHT22;9237;48.590;8.854;2023-02-26T10:34:14;-0.80;99.90
18225;DHT22;9237;48.590;8.854;2023-02-26T10:36:47;-0.80;99.90
18225;DHT22;9237;48.590;8.854;2023-02-26T10:39:22;-0.80;99.90
18225;DHT22;9237;48.590;8.854;2023-02-26T10:41:52;-0.80;99.90
18225;DHT22;9237;48.590;8.854;2023-02-26T10:44:23;-0.60;99.90
18225;DHT22;9237;48.590;8.854;2023-02-26T10:46:59;-0.50;99.90
18225;DHT22;9237;48.590;8.854;2023-02-26T10:49:49;-0.20;99.90
18225;DHT22;9237;48.590;8.854;2023-02-26T10:52:19;-0.40;99.90
18225;DHT22;9237;48.590;8.854;2023-02-26T10:54:54;0.30;99.90
18225;DHT22;9237;48.590;8.854;2023-02-26T10:57:26;0.40;99.90
18225;DHT22;9237;48.590;8.854;2023-02-26T10:59:54;0.50;99.90
18225;DHT22;9237;48.590;8.854;2023-02-26T11:02:35;1.60;99.90
18225;DHT22;9237;48.590;8.854;2023-02-26T11:05:04;0.30;99.90
18225;DHT22;9237;48.590;8.854;2023-02-26T11:07:32;0.30;99.90
18225;DHT22;9237;48.590;8.854;2023-02-26T11:10:02;0.20;99.90
18225;DHT22;9237;48.590;8.854;2023-02-26T11:12:31;0.20;99.90
18225;DHT22;9237;48.590;8.854;2023-02-26T11:15:00;0.40;99.90
18225;DHT22;9237;48.590;8.854;2023-02-26T11:17:28;0.40;99.90
18225;DHT22;9237;48.590;8.854;2023-02-26T11:20:00;0.40;99.90
18225;DHT22;9237;48.590;8.854;2023-02-26T11:22:32;0.10;99.90
18225;DHT22;9237;48.590;8.854;2023-02-26T11:25:02;0.10;99.90
18225;DHT22;9237;48.590;8.854;2023-02-26T11:27:31;0.00;99.90
18225;DHT22;9237;48.590;8.854;2023-02-26T11:30:02;0.10;99.90
18225;DHT22;9237;48.590;8.854;2023-02-26T11:32:33;-0.10;99.90
18225;DHT22;9237;48.590;8.854;2023-02-26T11:35:02;0.00;99.90
18225;DHT22;9237;48.590;8.854;2023-02-26T11:37:35;0.40;99.90
18225;DHT22;9237;48.590;8.854;2023-02-26T11:40:04;0.40;99.90
18225;DHT22;9237;48.590;8.854;2023-02-26T11:42:42;0.70;99.90
18225;DHT22;9237;48.590;8.854;2023-02-26T11:45:13;1.00;99.90
18225;DHT22;9237;48.590;8.854;2023-02-26T11:47:43;0.80;99.90
18225;DHT22;9237;48.590;8.854;2023-02-26T11:50:14;0.40;99.90
18225;DHT22;9237;48.590;8.854;2023-02-26T11:52:43;0.40;99.90
18225;DHT22;9237;48.590;8.854;2023-02-26T11:55:18;0.80;99.90
18225;DHT22;9237;48.590;8.854;2023-02-26T11:57:50;1.10;99.90
18225;DHT22;9237;48.590;8.854;2023-02-26T12:00:20;0.80;99.90
18225;DHT22;9237;48.590;8.854;2023-02-26T12:02:50;0.70;99.90
18225;DHT22;9237;48.590;8.854;2023-02-26T12:05:22;0.60;99.90
18225;DHT22;9237;48.590;8.854;2023-02-26T12:07:48;0.50;99.90
18225;DHT22;9237;48.590;8.854;2023-02-26T12:10:21;0.60;99.90
18225;DHT22;9237;48.590;8.854;2023-02-26T12:13:04;0.40;99.90
18225;DHT22;9237;48.590;8.854;2023-02-26T12:15:38;0.50;99.90
18225;DHT22;9237;48.590;8.854;2023-02-26T12:18:42;0.70;99.90
18225;DHT22;9237;48.590;8.854;2023-02-26T12:21:29;0.40;99.90
18225;DHT22;9237;48.590;8.854;2023-02-26T12:24:12;0.40;99.90
18225;DHT22;9237;48.590;8.854;2023-02-26T12:26:47;0.50;99.90
18225;DHT22;9237;48.590;8.854;2023-02-26T12:29:44;0.60;99.90
18225;DHT22;9237;48.590;8.854;2023-02-26T12:32:31;0.60;99.90
18225;DHT22;9237;48.590;8.854;2023-02-26T12:35:40;0.50;99.90
18225;DHT22;9237;48.590;8.854;2023-02-26T12:38:18;0.50;99.90
18225;DHT22;9237;48.590;8.854;2023-02-26T12:41:02;0.50;99.90
18225;DHT22;9237;48.590;8.854;2023-02-26T12:43:37;0.40;99.90
18225;DHT22;9237;48.590;8.854;2023-02-26T12:46:15;1.20;99.90
18225;DHT22;9237;48.590;8.854;2023-02-26T12:49:04;0.40;99.90
18225;DHT22;9237;48.590;8.854;2023-02-26T12:51:42;0.50;99.90
18225;DHT22;9237;48.590;8.854;2023-02-26T12:54:57;0.20;99.90
18225;DHT22;9237;48.590;8.854;2023-02-26T12:57:53;0.10;99.90
18225;DHT22;9237;48.590;8.854;2023-02-26T13:00:32;0.20;99.90
18225;DHT22;9237;48.590;8.854;2023-02-26T13:06:47;0.40;99.90
18225;DHT22;9237;48.590;8.854;2023-02-26T13:09:24;0.30;99.90
18225;DHT22;9237;48.590;8.854;2023-02-26T13:12:13;0.20;99.90
18225;DHT22;9237;48.590;8.854;2023-02-26T13:14:49;0.20;99.90
18225;DHT22;9237;48.590;8.854;2023-02-26T13:17:26;0.30;99.90
18225;DHT22;9237;48.590;8.854;2023-02-26T13:19:56;0.30;99.90
18225;DHT22;9237;48.590;8.854;2023-02-26T13:22:31;0.30;99.90
18225;DHT22;9237;48.590;8.854;2023-02-26T13:25:01;0.30;99.90
18225;DHT22;9237;48.590;8.854;2023-02-26T13:27:32;0.30;99.90
18225;DHT22;9237;48.590;8.854;2023-02-26T13:30:18;0.50;99.90
18225;DHT22;9237;48.590;8.854;2023-02-26T13:32:48;0.60;99.90
18225;DHT22;9237;48.590;8.854;2023-02-26T13:35:19;0.60;99.90
18225;DHT22;9237;48.590;8.854;2023-02-26T13:37:49;0.70;99.90
18225;DHT22;9237;48.590;8.854;2023-02-26T13:40:44;0.60;99.90
18225;DHT22;9237;48.590;8.854;2023-02-26T13:43:23;0.80;99.90
18225;DHT22;9237;48.590;8.854;2023-02-26T13:46:03;0.80;99.90
18225;DHT22;9237;48.590;8.854;2023-02-26T13:48:39;0.80;99.90
18225;DHT22;9237;48.590;8.854;2023-02-26T13:51:12;0.90;99.90
18225;DHT22;9237;48.590;8.854;2023-02-26T13:53:56;0.90;99.90
18225;DHT22;9237;48.590;8.854;2023-02-26T13:56:47;0.80;99.90
18225;DHT22;9237;48.590;8.854;2023-02-26T13:59:29;0.70;99.90
18225;DHT22;9237;48.590;8.854;2023-02-26T14:02:00;0.60;99.90
18225;DHT22;9237;48.590;8.854;2023-02-26T14:04:29;0.60;99.90
18225;DHT22;9237;48.590;8.854;2023-02-26T14:06:57;0.60;99.90
18225;DHT22;9237;48.590;8.854;2023-02-26T14:09:45;0.60;99.90
18225;DHT22;9237;48.590;8.854;2023-02-26T14:12:24;0.60;99.90
18225;DHT22;9237;48.590;8.854;2023-02-26T14:18:01;0.80;99.90
18225;DHT22;9237;48.590;8.854;2023-02-26T14:20:29;1.00;99.90
18225;DHT22;9237;48.590;8.854;2023-02-26T14:23:23;0.90;99.10
18225;DHT22;9237;48.590;8.854;2023-02-26T14:26:12;1.10;99.00
18225;DHT22;9237;48.590;8.854;2023-02-26T14:28:45;1.10;98.90
18225;DHT22;9237;48.590;8.854;2023-02-26T14:31:21;1.20;98.60
18225;DHT22;9237;48.590;8.854;2023-02-26T14:34:12;1.20;98.30
18225;DHT22;9237;48.590;8.854;2023-02-26T14:36:43;1.20;98.30
18225;DHT22;9237;48.590;8.854;2023-02-26T14:39:26;1.50;98.10
18225;DHT22;9237;48.590;8.854;2023-02-26T14:41:59;1.90;96.60
18225;DHT22;9237;48.590;8.854;2023-02-26T14:44:30;3.30;96.10
18225;DHT22;9237;48.590;8.854;2023-02-26T14:46:58;4.00;93.40
18225;DHT22;9237;48.590;8.854;2023-02-26T14:49:29;4.40;93.10
18225;DHT22;9237;48.590;8.854;2023-02-26T14:52:23;4.60;92.10
18225;DHT22;9237;48.590;8.854;2023-02-26T14:55:28;3.50;92.60
18225;DHT22;9237;48.590;8.854;2023-02-26T15:00:53;3.50;92.50
18225;DHT22;9237;48.590;8.854;2023-02-26T15:06:33;3.80;91.60
18225;DHT22;9237;48.590;8.854;2023-02-26T15:09:12;4.30;90.90
18225;DHT22;9237;48.590;8.854;2023-02-26T15:11:57;3.50;91.80
18225;DHT22;9237;48.590;8.854;2023-02-26T15:14:44;4.10;92.10
18225;DHT22;9237;48.590;8.854;2023-02-26T15:17:30;5.20;89.70
18225;DHT22;9237;48.590;8.854;2023-02-26T15:20:05;5.20;89.30
18225;DHT22;9237;48.590;8.854;2023-02-26T15:22:49;5.30;88.90
18225;DHT22;9237;48.590;8.854;2023-02-26T15:25:24;5.20;89.00
18225;DHT22;9237;48.590;8.854;2023-02-26T15:27:53;4.90;87.90
18225;DHT22;9237;48.590;8.854;2023-02-26T15:30:22;5.80;88.20
18225;DHT22;9237;48.590;8.854;2023-02-26T15:32:55;5.30;85.40
18225;DHT22;9237;48.590;8.854;2023-02-26T15:35:23;4.40;87.20
18225;DHT22;9237;48.590;8.854;2023-02-26T15:37:54;3.00;90.10
18225;DHT22;9237;48.590;8.854;2023-02-26T15:40:22;2.20;91.60
18225;DHT22;9237;48.590;8.854;2023-02-26T15:42:51;2.30;92.20
18225;DHT22;9237;48.590;8.854;2023-02-26T15:45:26;2.50;92.20
18225;DHT22;9237;48.590;8.854;2023-02-26T15:47:56;2.50;91.60
18225;DHT22;9237;48.590;8.854;2023-02-26T15:50:26;2.90;91.90
18225;DHT22;9237;48.590;8.854;2023-02-26T15:52:57;2.40;92.10
18225;DHT22;9237;48.590;8.854;2023-02-26T15:55:25;2.10;92.10
18225;DHT22;9237;48.590;8.854;2023-02-26T15:57:52;1.70;92.80
18225;DHT22;9237;48.590;8.854;2023-02-26T16:00:22;1.50;92.80
18225;DHT22;9237;48.590;8.854;2023-02-26T16:02:50;1.30;92.90
18225;DHT22;9237;48.590;8.854;2023-02-26T16:05:18;1.30;93.40
18225;DHT22;9237;48.590;8.854;2023-02-26T16:07:45;1.30;93.40
18225;DHT22;9237;48.590;8.854;2023-02-26T16:10:16;1.20;93.50
18225;DHT22;9237;48.590;8.854;2023-02-26T16:12:45;1.10;94.10
18225;DHT22;9237;48.590;8.854;2023-02-26T16:15:16;1.10;94.70
18225;DHT22;9237;48.590;8.854;2023-02-26T16:17:48;1.10;94.70
18225;DHT22;9237;48.590;8.854;2023-02-26T16:20:17;1.00;95.00
18225;DHT22;9237;48.590;8.854;2023-02-26T16:22:46;0.90;95.20
18225;DHT22;9237;48.590;8.854;2023-02-26T16:25:19;0.80;95.30
18225;DHT22;9237;48.590;8.854;2023-02-26T16:27:53;0.80;95.50
18225;DHT22;9237;48.590;8.854;2023-02-26T16:30:25;0.80;95.30
18225;DHT22;9237;48.590;8.854;2023-02-26T16:32:56;0.80;95.50
18225;DHT22;9237;48.590;8.854;2023-02-26T16:35:28;0.80;95.30
18225;DHT22;9237;48.590;8.854;2023-02-26T16:37:59;0.80;95.40
18225;DHT22;9237;48.590;8.854;2023-02-26T16:40:33;0.80;95.20